Time,TemperatureF,DewpointF,PressureIn,WindDirection,WindDirectionDegrees,WindSpeedMPH,WindSpeedGustMPH,Humidity,HourlyPrecipIn,Conditions,Clouds,dailyrainin,SolarRadiationWatts/m^2,SoftwareType,DateUTC
2013-07-26 00:09:00,65.3,62.0,29.96,SW,221,0.0,-999.0,89,-99.99,,,0.00,0,weatherlink.com 1.10,2013-07-26 05:09:00,
2013-07-26 00:24:00,64.4,61.0,29.96,SW,221,0.0,-999.0,89,-99.99,,,0.00,0,weatherlink.com 1.10,2013-07-26 05:24:00,
2013-07-26 00:40:00,63.7,61.0,29.96,SW,221,0.0,-999.0,90,-99.99,,,0.00,0,weatherlink.com 1.10,2013-07-26 05:40:00,
2013-07-26 00:54:00,63.0,60.0,29.97,SW,221,0.0,-999.0,91,-99.99,,,0.00,0,weatherlink.com 1.10,2013-07-26 05:54:00,
2013-07-26 01:09:00,62.6,60.0,29.97,SW,221,0.0,-999.0,92,-99.99,,,0.00,0,weatherlink.com 1.10,2013-07-26 06:09:00,
2013-07-26 01:24:00,62.3,60.0,29.97,SW,221,0.0,-999.0,92,-99.99,,,0.00,0,weatherlink.com 1.10,2013-07-26 06:24:00,
2013-07-26 01:40:00,62.0,60.0,29.96,SW,221,0.0,-999.0,93,-99.99,,,0.00,0,weatherlink.com 1.10,2013-07-26 06:40:00,
2013-07-26 01:55:00,62.1,60.0,29.97,SW,221,0.0,-999.0,93,-99.99,,,0.00,0,weatherlink.com 1.10,2013-07-26 06:55:00,
2013-07-26 02:10:00,62.1,60.0,29.96,SW,221,0.0,-999.0,94,-99.99,,,0.00,0,weatherlink.com 1.10,2013-07-26 07:10:00,
2013-07-26 02:25:00,62.0,60.0,29.95,SW,221,1.0,-999.0,94,-99.99,,,0.00,0,weatherlink.com 1.10,2013-07-26 07:25:00,
2013-07-26 02:40:00,62.5,61.0,29.96,NNW,348,0.0,-999.0,94,-99.99,,,0.00,0,weatherlink.com 1.10,2013-07-26 07:40:00,
2013-07-26 02:55:00,62.6,60.0,29.96,NNW,327,1.0,-999.0,91,-99.99,,,0.00,0,weatherlink.com 1.10,2013-07-26 07:55:00,
2013-07-26 03:10:00,62.6,59.0,29.96,NNW,341,0.0,-999.0,89,-99.99,,,0.00,0,weatherlink.com 1.10,2013-07-26 08:10:00,
2013-07-26 03:25:00,62.4,59.0,29.96,NW,311,0.0,-999.0,88,-99.99,,,0.00,0,weatherlink.com 1.10,2013-07-26 08:25:00,
2013-07-26 03:40:00,62.0,59.0,29.97,NNW,336,1.0,-999.0,88,-99.99,,,0.00,0,weatherlink.com 1.10,2013-07-26 08:40:00,
2013-07-26 03:55:00,61.6,58.0,29.97,NNW,332,1.0,-999.0,87,-99.99,,,0.00,0,weatherlink.com 1.10,2013-07-26 08:55:00,
2013-07-26 04:10:00,61.2,57.0,29.97,NNW,331,1.0,-999.0,87,-99.99,,,0.00,0,weatherlink.com 1.10,2013-07-26 09:10:00,
2013-07-26 04:25:00,60.8,57.0,29.97,NW,309,1.0,-999.0,86,-99.99,,,0.00,0,weatherlink.com 1.10,2013-07-26 09:25:00,
2013-07-26 04:40:00,60.3,57.0,29.97,NNW,335,0.0,-999.0,87,-99.99,,,0.00,0,weatherlink.com 1.10,2013-07-26 09:40:00,
2013-07-26 04:55:00,59.7,56.0,29.97,NW,325,1.0,-999.0,88,-99.99,,,0.00,0,weatherlink.com 1.10,2013-07-26 09:55:00,
2013-07-26 05:10:00,59.4,56.0,29.97,NW,311,2.0,-999.0,88,-99.99,,,0.00,0,weatherlink.com 1.10,2013-07-26 10:10:00,
2013-07-26 05:25:00,59.1,55.0,29.97,WSW,254,0.0,-999.0,87,-99.99,,,0.00,0,weatherlink.com 1.10,2013-07-26 10:25:00,
2013-07-26 05:40:00,58.7,55.0,29.97,NW,309,2.0,-999.0,88,-99.99,,,0.00,0,weatherlink.com 1.10,2013-07-26 10:40:00,
2013-07-26 05:55:00,58.0,55.0,29.97,West,270,2.0,-999.0,89,-99.99,,,0.00,0,weatherlink.com 1.10,2013-07-26 10:55:00,
2013-07-26 06:10:00,57.7,55.0,29.98,NNW,333,2.0,-999.0,90,-99.99,,,0.00,9,weatherlink.com 1.10,2013-07-26 11:10:00,
2013-07-26 06:25:00,57.5,54.0,29.98,WNW,283,2.0,-999.0,89,-99.99,,,0.00,12,weatherlink.com 1.10,2013-07-26 11:25:00,
2013-07-26 06:40:00,57.7,55.0,29.99,WNW,287,0.0,-999.0,90,-99.99,,,0.00,16,weatherlink.com 1.10,2013-07-26 11:40:00,
2013-07-26 06:55:00,57.8,55.0,29.99,North,360,0.0,-999.0,90,-99.99,,,0.00,19,weatherlink.com 1.10,2013-07-26 11:55:00,
2013-07-26 07:10:00,58.0,55.0,29.99,WNW,292,4.0,-999.0,90,-99.99,,,0.00,23,weatherlink.com 1.10,2013-07-26 12:10:00,
2013-07-26 07:25:00,58.2,55.0,29.99,WNW,283,2.0,-999.0,90,-99.99,,,0.00,25,weatherlink.com 1.10,2013-07-26 12:25:00,
2013-07-26 07:40:00,58.4,56.0,29.99,NNW,339,5.0,-999.0,90,-99.99,,,0.00,26,weatherlink.com 1.10,2013-07-26 12:40:00,
2013-07-26 07:55:00,58.5,56.0,30.00,WNW,283,3.0,-999.0,90,-99.99,,,0.00,93,weatherlink.com 1.10,2013-07-26 12:55:00,
2013-07-26 08:11:00,58.5,55.0,30.01,North,350,5.0,-999.0,88,-99.99,,,0.00,95,weatherlink.com 1.10,2013-07-26 13:11:00,
2013-07-26 08:25:00,58.4,55.0,30.01,WNW,286,5.0,-999.0,87,-99.99,,,0.00,178,weatherlink.com 1.10,2013-07-26 13:25:00,
2013-07-26 08:40:00,59.1,55.0,30.01,NNW,341,3.0,-999.0,86,-99.99,,,0.00,185,weatherlink.com 1.10,2013-07-26 13:40:00,
2013-07-26 08:55:00,59.4,55.0,30.01,WNW,300,6.0,-999.0,85,-99.99,,,0.00,120,weatherlink.com 1.10,2013-07-26 13:55:00,
2013-07-26 09:10:00,59.6,55.0,30.01,WNW,290,4.0,-999.0,85,-99.99,,,0.00,169,weatherlink.com 1.10,2013-07-26 14:10:00,
2013-07-26 09:25:00,60.2,56.0,30.02,NNW,348,3.0,-999.0,85,-99.99,,,0.00,262,weatherlink.com 1.10,2013-07-26 14:25:00,
2013-07-26 09:40:00,60.6,56.0,30.02,NNW,329,3.0,-999.0,85,-99.99,,,0.00,223,weatherlink.com 1.10,2013-07-26 14:40:00,
2013-07-26 09:55:00,61.0,56.0,30.02,NNE,13,4.0,-999.0,84,-99.99,,,0.00,234,weatherlink.com 1.10,2013-07-26 14:55:00,
2013-07-26 10:10:00,61.5,57.0,30.02,West,279,5.0,-999.0,85,-99.99,,,0.00,403,weatherlink.com 1.10,2013-07-26 15:10:00,
2013-07-26 10:25:00,61.0,57.0,30.02,NW,322,6.0,-999.0,85,-99.99,,,0.00,255,weatherlink.com 1.10,2013-07-26 15:25:00,
2013-07-26 10:40:00,62.6,57.0,30.02,WNW,282,4.0,-999.0,83,-99.99,,,0.00,756,weatherlink.com 1.10,2013-07-26 15:40:00,
2013-07-26 10:55:00,63.9,58.0,30.02,NNW,333,5.0,-999.0,81,-99.99,,,0.00,914,weatherlink.com 1.10,2013-07-26 15:55:00,
2013-07-26 11:10:00,63.9,57.0,30.02,NNW,340,5.0,-999.0,79,-99.99,,,0.00,796,weatherlink.com 1.10,2013-07-26 16:10:00,
2013-07-26 11:26:00,64.1,57.0,30.03,NNW,332,5.0,-999.0,77,-99.99,,,0.00,332,weatherlink.com 1.10,2013-07-26 16:26:00,
2013-07-26 11:41:00,63.3,58.0,30.04,NW,314,9.0,-999.0,82,-99.99,,,0.00,450,weatherlink.com 1.10,2013-07-26 16:41:00,
2013-07-26 11:56:00,64.0,57.0,30.04,NNW,345,11.0,-999.0,78,-99.99,,,0.00,230,weatherlink.com 1.10,2013-07-26 16:56:00,
2013-07-26 12:11:00,64.1,56.0,30.05,NW,318,10.0,-999.0,74,-99.99,,,0.00,900,weatherlink.com 1.10,2013-07-26 17:11:00,
2013-07-26 12:26:00,65.9,56.0,30.05,NNW,336,11.0,-999.0,70,-99.99,,,0.00,995,weatherlink.com 1.10,2013-07-26 17:26:00,
2013-07-26 12:41:00,65.3,55.0,30.06,NW,321,5.0,-999.0,70,-99.99,,,0.00,703,weatherlink.com 1.10,2013-07-26 17:41:00,
2013-07-26 12:56:00,66.2,54.0,30.06,NNW,348,6.0,-999.0,66,-99.99,,,0.00,526,weatherlink.com 1.10,2013-07-26 17:56:00,
2013-07-26 13:11:00,65.2,56.0,30.06,WNW,294,3.0,-999.0,72,-99.99,,,0.00,823,weatherlink.com 1.10,2013-07-26 18:11:00,
2013-07-26 13:26:00,66.7,57.0,30.06,NNW,342,11.0,-999.0,70,-99.99,,,0.00,925,weatherlink.com 1.10,2013-07-26 18:26:00,
2013-07-26 13:42:00,66.9,56.0,30.05,NNW,334,9.0,-999.0,68,-99.99,,,0.00,1072,weatherlink.com 1.10,2013-07-26 18:42:00,
2013-07-26 13:57:00,66.5,57.0,30.05,North,355,10.0,-999.0,71,-99.99,,,0.00,926,weatherlink.com 1.10,2013-07-26 18:57:00,
2013-07-26 14:12:00,67.1,56.0,30.05,NNW,335,9.0,-999.0,67,-99.99,,,0.00,979,weatherlink.com 1.10,2013-07-26 19:12:00,
2013-07-26 14:27:00,65.6,55.0,30.06,North,355,9.0,-999.0,69,-99.99,,,0.00,476,weatherlink.com 1.10,2013-07-26 19:27:00,
2013-07-26 14:42:00,65.3,55.0,30.06,North,351,4.0,-999.0,69,-99.99,,,0.01,448,weatherlink.com 1.10,2013-07-26 19:42:00,
2013-07-26 14:57:00,64.7,54.0,30.06,NNE,12,9.0,-999.0,68,-99.99,,,0.01,376,weatherlink.com 1.10,2013-07-26 19:57:00,
2013-07-26 15:12:00,65.3,54.0,30.07,NNW,345,9.0,-999.0,67,-99.99,,,0.01,232,weatherlink.com 1.10,2013-07-26 20:12:00,
2013-07-26 15:27:00,64.3,54.0,30.07,NNW,348,7.0,-999.0,69,-99.99,,,0.01,325,weatherlink.com 1.10,2013-07-26 20:27:00,
2013-07-26 15:42:00,64.2,53.0,30.08,North,350,9.0,-999.0,68,-99.99,,,0.01,195,weatherlink.com 1.10,2013-07-26 20:42:00,
2013-07-26 15:58:00,64.5,54.0,30.08,North,355,7.0,-999.0,69,-99.99,,,0.01,306,weatherlink.com 1.10,2013-07-26 20:58:00,
2013-07-26 16:12:00,65.6,54.0,30.09,North,5,6.0,-999.0,66,-99.99,,,0.01,773,weatherlink.com 1.10,2013-07-26 21:12:00,
2013-07-26 16:28:00,65.1,53.0,30.10,NNE,15,10.0,-999.0,64,-99.99,,,0.01,267,weatherlink.com 1.10,2013-07-26 21:28:00,
2013-07-26 16:43:00,64.6,53.0,30.10,North,355,4.0,-999.0,67,-99.99,,,0.01,202,weatherlink.com 1.10,2013-07-26 21:43:00,
2013-07-26 16:58:00,64.6,53.0,30.10,NNW,344,8.0,-999.0,66,-99.99,,,0.01,207,weatherlink.com 1.10,2013-07-26 21:58:00,
2013-07-26 17:13:00,63.4,53.0,30.11,NNW,342,6.0,-999.0,70,-99.99,,,0.01,86,weatherlink.com 1.10,2013-07-26 22:13:00,
2013-07-26 17:29:00,63.1,54.0,30.11,North,360,3.0,-999.0,72,-99.99,,,0.01,251,weatherlink.com 1.10,2013-07-26 22:29:00,
2013-07-26 17:43:00,61.8,53.0,30.12,NNW,348,4.0,-999.0,72,-99.99,,,0.01,95,weatherlink.com 1.10,2013-07-26 22:43:00,
2013-07-26 17:58:00,62.2,54.0,30.12,North,355,6.0,-999.0,74,-99.99,,,0.01,229,weatherlink.com 1.10,2013-07-26 22:58:00,
2013-07-26 18:13:00,61.7,54.0,30.13,NNW,335,9.0,-999.0,76,-99.99,,,0.01,163,weatherlink.com 1.10,2013-07-26 23:13:00,
2013-07-26 18:28:00,60.4,53.0,30.12,North,355,4.0,-999.0,77,-99.99,,,0.01,130,weatherlink.com 1.10,2013-07-26 23:28:00,
2013-07-26 18:43:00,61.1,54.0,30.12,NNE,13,3.0,-999.0,76,-99.99,,,0.01,134,weatherlink.com 1.10,2013-07-26 23:43:00,
2013-07-26 18:59:00,61.7,53.0,30.12,North,349,5.0,-999.0,73,-99.99,,,0.01,297,weatherlink.com 1.10,2013-07-26 23:59:00,
2013-07-26 19:14:00,62.3,52.0,30.12,North,355,6.0,-999.0,68,-99.99,,,0.01,186,weatherlink.com 1.10,2013-07-27 00:14:00,
2013-07-26 19:29:00,62.3,52.0,30.12,North,5,5.0,-999.0,70,-99.99,,,0.01,132,weatherlink.com 1.10,2013-07-27 00:29:00,
2013-07-26 19:44:00,61.4,52.0,30.12,North,5,3.0,-999.0,72,-99.99,,,0.01,33,weatherlink.com 1.10,2013-07-27 00:44:00,
2013-07-26 19:59:00,61.3,53.0,30.13,NNE,12,4.0,-999.0,74,-99.99,,,0.01,46,weatherlink.com 1.10,2013-07-27 00:59:00,
2013-07-26 20:14:00,60.9,50.0,30.13,North,360,6.0,-999.0,68,-99.99,,,0.01,53,weatherlink.com 1.10,2013-07-27 01:14:00,
2013-07-26 20:29:00,60.3,50.0,30.13,North,355,4.0,-999.0,69,-99.99,,,0.01,16,weatherlink.com 1.10,2013-07-27 01:29:00,
2013-07-26 20:44:00,59.4,50.0,30.13,North,355,3.0,-999.0,71,-99.99,,,0.01,7,weatherlink.com 1.10,2013-07-27 01:44:00,
2013-07-26 20:59:00,58.6,50.0,30.14,North,355,3.0,-999.0,72,-99.99,,,0.01,0,weatherlink.com 1.10,2013-07-27 01:59:00,
2013-07-26 21:14:00,58.0,49.0,30.14,North,360,3.0,-999.0,72,-99.99,,,0.01,0,weatherlink.com 1.10,2013-07-27 02:14:00,
2013-07-26 21:29:00,57.5,50.0,30.14,NE,39,4.0,-999.0,75,-99.99,,,0.01,0,weatherlink.com 1.10,2013-07-27 02:29:00,
2013-07-26 21:44:00,56.8,50.0,30.14,NNE,22,2.0,-999.0,77,-99.99,,,0.01,0,weatherlink.com 1.10,2013-07-27 02:44:00,
2013-07-26 21:59:00,56.3,50.0,30.15,North,355,3.0,-999.0,78,-99.99,,,0.01,0,weatherlink.com 1.10,2013-07-27 02:59:00,
2013-07-26 22:15:00,55.7,49.0,30.15,North,5,2.0,-999.0,79,-99.99,,,0.01,0,weatherlink.com 1.10,2013-07-27 03:15:00,
2013-07-26 22:30:00,54.8,49.0,30.15,North,5,2.0,-999.0,80,-99.99,,,0.01,0,weatherlink.com 1.10,2013-07-27 03:30:00,
2013-07-26 22:45:00,54.1,49.0,30.15,NNW,328,3.0,-999.0,82,-99.99,,,0.01,0,weatherlink.com 1.10,2013-07-27 03:45:00,
2013-07-26 23:01:00,53.5,49.0,30.15,NW,321,1.0,-999.0,83,-99.99,,,0.01,0,weatherlink.com 1.10,2013-07-27 04:01:00,
2013-07-26 23:15:00,53.0,48.0,30.16,NW,321,2.0,-999.0,84,-99.99,,,0.01,0,weatherlink.com 1.10,2013-07-27 04:15:00,
2013-07-26 23:30:00,52.8,48.0,30.16,NW,322,1.0,-999.0,85,-99.99,,,0.01,0,weatherlink.com 1.10,2013-07-27 04:30:00,
2013-07-26 23:45:00,52.5,48.0,30.16,NW,322,1.0,-999.0,85,-99.99,,,0.01,0,weatherlink.com 1.10,2013-07-27 04:45:00,